sensor_id;sensor_type;location;lat;lon;timestamp;P1;durP1;ratioP1;P2;durP2;ratioP2
66972;SDS011;53902;51.466;-2.586;2022-11-04T00:00:25;4.53;;;2.67;;
66972;SDS011;53902;51.466;-2.586;2022-11-04T00:02:51;6.50;;;2.65;;
66972;SDS011;53902;51.466;-2.586;2022-11-04T00:05:17;8.00;;;2.60;;
66972;SDS011;53902;51.466;-2.586;2022-11-04T00:07:42;7.70;;;2.90;;
66972;SDS011;53902;51.466;-2.586;2022-11-04T00:10:26;4.85;;;2.90;;
66972;SDS011;53902;51.466;-2.586;2022-11-04T00:13:27;8.50;;;2.83;;
66972;SDS011;53902;51.466;-2.586;2022-11-04T00:15:53;8.73;;;3.17;;
66972;SDS011;53902;51.466;-2.586;2022-11-04T00:18:46;6.90;;;3.70;;
66972;SDS011;53902;51.466;-2.586;2022-11-04T00:21:11;5.22;;;3.20;;
66972;SDS011;53902;51.466;-2.586;2022-11-04T00:24:01;4.60;;;2.65;;
66972;SDS011;53902;51.466;-2.586;2022-11-04T00:26:48;8.68;;;3.10;;
66972;SDS011;53902;51.466;-2.586;2022-11-04T00:29:33;5.37;;;2.93;;
66972;SDS011;53902;51.466;-2.586;2022-11-04T00:31:59;3.65;;;2.50;;
66972;SDS011;53902;51.466;-2.586;2022-11-04T00:34:47;5.70;;;2.60;;
66972;SDS011;53902;51.466;-2.586;2022-11-04T00:37:13;5.32;;;2.45;;
66972;SDS011;53902;51.466;-2.586;2022-11-04T00:39:48;5.28;;;2.70;;
66972;SDS011;53902;51.466;-2.586;2022-11-04T00:42:13;7.68;;;3.00;;
66972;SDS011;53902;51.466;-2.586;2022-11-04T00:44:39;5.53;;;3.28;;
66972;SDS011;53902;51.466;-2.586;2022-11-04T00:47:07;3.92;;;2.65;;
66972;SDS011;53902;51.466;-2.586;2022-11-04T00:49:32;5.18;;;2.88;;
66972;SDS011;53902;51.466;-2.586;2022-11-04T00:51:58;4.00;;;2.83;;
66972;SDS011;53902;51.466;-2.586;2022-11-04T00:54:25;4.82;;;2.90;;
66972;SDS011;53902;51.466;-2.586;2022-11-04T00:56:51;5.72;;;2.28;;
66972;SDS011;53902;51.466;-2.586;2022-11-04T00:59:18;6.88;;;2.55;;
66972;SDS011;53902;51.466;-2.586;2022-11-04T01:01:43;3.40;;;2.40;;
66972;SDS011;53902;51.466;-2.586;2022-11-04T01:04:09;2.80;;;2.03;;
66972;SDS011;53902;51.466;-2.586;2022-11-04T01:06:34;3.20;;;1.67;;
66972;SDS011;53902;51.466;-2.586;2022-11-04T01:09:01;3.80;;;1.88;;
66972;SDS011;53902;51.466;-2.586;2022-11-04T01:11:30;4.22;;;1.85;;
66972;SDS011;53902;51.466;-2.586;2022-11-04T01:13:56;3.75;;;1.67;;
66972;SDS011;53902;51.466;-2.586;2022-11-04T01:16:22;2.85;;;1.90;;
66972;SDS011;53902;51.466;-2.586;2022-11-04T01:18:49;3.22;;;1.98;;
66972;SDS011;53902;51.466;-2.586;2022-11-04T01:21:15;3.25;;;2.00;;
66972;SDS011;53902;51.466;-2.586;2022-11-04T01:23:41;2.50;;;1.67;;
66972;SDS011;53902;51.466;-2.586;2022-11-04T01:26:09;7.03;;;2.42;;
66972;SDS011;53902;51.466;-2.586;2022-11-04T01:28:42;2.95;;;1.67;;
66972;SDS011;53902;51.466;-2.586;2022-11-04T01:31:08;2.60;;;1.60;;
66972;SDS011;53902;51.466;-2.586;2022-11-04T01:33:41;2.72;;;1.77;;
66972;SDS011;53902;51.466;-2.586;2022-11-04T01:36:10;4.63;;;1.83;;
66972;SDS011;53902;51.466;-2.586;2022-11-04T01:38:36;2.03;;;1.52;;
66972;SDS011;53902;51.466;-2.586;2022-11-04T01:41:02;2.75;;;1.73;;
66972;SDS011;53902;51.466;-2.586;2022-11-04T01:46:49;2.67;;;1.33;;
66972;SDS011;53902;51.466;-2.586;2022-11-04T01:49:32;2.67;;;1.45;;
66972;SDS011;53902;51.466;-2.586;2022-11-04T01:52:05;2.25;;;1.60;;
66972;SDS011;53902;51.466;-2.586;2022-11-04T01:54:39;2.25;;;1.50;;
66972;SDS011;53902;51.466;-2.586;2022-11-04T01:57:07;6.95;;;1.52;;
66972;SDS011;53902;51.466;-2.586;2022-11-04T01:59:37;3.20;;;1.60;;
66972;SDS011;53902;51.466;-2.586;2022-11-04T02:02:04;5.05;;;1.40;;
66972;SDS011;53902;51.466;-2.586;2022-11-04T02:04:35;2.22;;;1.58;;
66972;SDS011;53902;51.466;-2.586;2022-11-04T02:07:03;3.08;;;1.50;;
66972;SDS011;53902;51.466;-2.586;2022-11-04T02:09:31;4.85;;;1.50;;
66972;SDS011;53902;51.466;-2.586;2022-11-04T02:11:57;3.35;;;1.50;;
66972;SDS011;53902;51.466;-2.586;2022-11-04T02:14:42;4.63;;;1.83;;
66972;SDS011;53902;51.466;-2.586;2022-11-04T02:22:35;2.92;;;1.60;;
66972;SDS011;53902;51.466;-2.586;2022-11-04T02:25:26;3.08;;;1.80;;
66972;SDS011;53902;51.466;-2.586;2022-11-04T02:34:03;3.92;;;2.28;;
66972;SDS011;53902;51.466;-2.586;2022-11-04T02:45:25;3.70;;;2.17;;
66972;SDS011;53902;51.466;-2.586;2022-11-04T02:48:45;3.55;;;2.30;;
66972;SDS011;53902;51.466;-2.586;2022-11-04T02:54:23;4.20;;;2.58;;
66972;SDS011;53902;51.466;-2.586;2022-11-04T02:56:53;10.00;;;2.70;;
66972;SDS011;53902;51.466;-2.586;2022-11-04T02:59:31;6.72;;;2.50;;
66972;SDS011;53902;51.466;-2.586;2022-11-04T03:02:00;5.75;;;2.25;;
66972;SDS011;53902;51.466;-2.586;2022-11-04T03:04:30;8.70;;;2.47;;
66972;SDS011;53902;51.466;-2.586;2022-11-04T03:06:58;3.45;;;2.83;;
66972;SDS011;53902;51.466;-2.586;2022-11-04T03:09:26;5.00;;;2.65;;
66972;SDS011;53902;51.466;-2.586;2022-11-04T03:11:54;5.10;;;2.75;;
66972;SDS011;53902;51.466;-2.586;2022-11-04T03:14:24;7.03;;;2.78;;
66972;SDS011;53902;51.466;-2.586;2022-11-04T03:16:56;14.48;;;2.90;;
66972;SDS011;53902;51.466;-2.586;2022-11-04T03:22:19;7.07;;;2.90;;
66972;SDS011;53902;51.466;-2.586;2022-11-04T03:24:46;7.10;;;2.50;;
66972;SDS011;53902;51.466;-2.586;2022-11-04T03:30:19;3.72;;;2.58;;
66972;SDS011;53902;51.466;-2.586;2022-11-04T03:32:53;5.28;;;2.92;;
66972;SDS011;53902;51.466;-2.586;2022-11-04T03:35:22;7.10;;;2.80;;
66972;SDS011;53902;51.466;-2.586;2022-11-04T03:37:49;5.05;;;2.75;;
66972;SDS011;53902;51.466;-2.586;2022-11-04T03:40:15;3.65;;;2.45;;
66972;SDS011;53902;51.466;-2.586;2022-11-04T03:42:47;5.80;;;2.25;;
66972;SDS011;53902;51.466;-2.586;2022-11-04T03:45:37;11.80;;;3.15;;
66972;SDS011;53902;51.466;-2.586;2022-11-04T03:48:04;4.22;;;2.67;;
66972;SDS011;53902;51.466;-2.586;2022-11-04T03:50:31;5.00;;;2.65;;
66972;SDS011;53902;51.466;-2.586;2022-11-04T03:53:07;5.13;;;2.50;;
66972;SDS011;53902;51.466;-2.586;2022-11-04T04:01:56;6.78;;;2.83;;
66972;SDS011;53902;51.466;-2.586;2022-11-04T04:04:29;3.05;;;2.30;;
66972;SDS011;53902;51.466;-2.586;2022-11-04T04:09:55;7.03;;;2.42;;
66972;SDS011;53902;51.466;-2.586;2022-11-04T04:12:56;6.10;;;3.00;;
66972;SDS011;53902;51.466;-2.586;2022-11-04T04:15:46;5.97;;;2.42;;
66972;SDS011;53902;51.466;-2.586;2022-11-04T04:18:20;6.82;;;2.75;;
66972;SDS011;53902;51.466;-2.586;2022-11-04T04:20:50;5.53;;;2.40;;
66972;SDS011;53902;51.466;-2.586;2022-11-04T04:23:21;5.35;;;2.38;;
66972;SDS011;53902;51.466;-2.586;2022-11-04T04:26:07;5.65;;;2.70;;
66972;SDS011;53902;51.466;-2.586;2022-11-04T04:28:52;11.35;;;3.15;;
66972;SDS011;53902;51.466;-2.586;2022-11-04T04:31:18;4.50;;;2.42;;
66972;SDS011;53902;51.466;-2.586;2022-11-04T04:34:03;7.25;;;2.85;;
66972;SDS011;53902;51.466;-2.586;2022-11-04T04:36:30;10.87;;;2.90;;
66972;SDS011;53902;51.466;-2.586;2022-11-04T04:38:58;5.30;;;2.67;;
66972;SDS011;53902;51.466;-2.586;2022-11-04T04:41:47;4.40;;;2.45;;
66972;SDS011;53902;51.466;-2.586;2022-11-04T04:44:31;4.88;;;3.00;;
66972;SDS011;53902;51.466;-2.586;2022-11-04T04:47:18;7.95;;;3.05;;
66972;SDS011;53902;51.466;-2.586;2022-11-04T04:49:50;3.55;;;2.38;;
66972;SDS011;53902;51.466;-2.586;2022-11-04T04:52:27;14.95;;;2.72;;
66972;SDS011;53902;51.466;-2.586;2022-11-04T04:54:57;5.20;;;2.53;;
66972;SDS011;53902;51.466;-2.586;2022-11-04T04:57:23;4.57;;;2.80;;
66972;SDS011;53902;51.466;-2.586;2022-11-04T04:59:49;5.80;;;2.85;;
66972;SDS011;53902;51.466;-2.586;2022-11-04T05:02:15;8.68;;;3.00;;
66972;SDS011;53902;51.466;-2.586;2022-11-04T05:04:41;5.93;;;3.45;;
66972;SDS011;53902;51.466;-2.586;2022-11-04T05:07:06;4.22;;;3.03;;
66972;SDS011;53902;51.466;-2.586;2022-11-04T05:11:59;10.77;;;3.77;;
66972;SDS011;53902;51.466;-2.586;2022-11-04T05:14:25;7.03;;;2.83;;
66972;SDS011;53902;51.466;-2.586;2022-11-04T05:16:54;9.80;;;3.65;;
66972;SDS011;53902;51.466;-2.586;2022-11-04T05:19:29;6.75;;;3.08;;
66972;SDS011;53902;51.466;-2.586;2022-11-04T05:21:56;6.53;;;2.97;;
66972;SDS011;53902;51.466;-2.586;2022-11-04T05:24:22;9.50;;;2.97;;
66972;SDS011;53902;51.466;-2.586;2022-11-04T05:26:47;5.20;;;2.88;;
66972;SDS011;53902;51.466;-2.586;2022-11-04T05:29:17;10.52;;;3.25;;
66972;SDS011;53902;51.466;-2.586;2022-11-04T05:31:42;8.90;;;3.00;;
66972;SDS011;53902;51.466;-2.586;2022-11-04T05:34:11;8.50;;;3.15;;
66972;SDS011;53902;51.466;-2.586;2022-11-04T05:36:38;4.97;;;2.92;;
66972;SDS011;53902;51.466;-2.586;2022-11-04T05:39:04;7.53;;;2.88;;
66972;SDS011;53902;51.466;-2.586;2022-11-04T05:41:31;5.65;;;2.78;;
66972;SDS011;53902;51.466;-2.586;2022-11-04T05:44:01;6.47;;;2.28;;
66972;SDS011;53902;51.466;-2.586;2022-11-04T05:46:34;4.40;;;2.90;;
66972;SDS011;53902;51.466;-2.586;2022-11-04T05:48:59;8.35;;;3.00;;
66972;SDS011;53902;51.466;-2.586;2022-11-04T05:51:26;8.07;;;3.17;;
66972;SDS011;53902;51.466;-2.586;2022-11-04T05:53:52;2.67;;;2.33;;
66972;SDS011;53902;51.466;-2.586;2022-11-04T05:56:17;6.05;;;2.90;;
66972;SDS011;53902;51.466;-2.586;2022-11-04T05:58:43;6.40;;;2.92;;
66972;SDS011;53902;51.466;-2.586;2022-11-04T06:01:10;3.83;;;2.40;;
66972;SDS011;53902;51.466;-2.586;2022-11-04T06:03:50;7.35;;;2.58;;
66972;SDS011;53902;51.466;-2.586;2022-11-04T06:06:22;6.28;;;3.25;;
66972;SDS011;53902;51.466;-2.586;2022-11-04T06:08:51;6.22;;;2.70;;
66972;SDS011;53902;51.466;-2.586;2022-11-04T06:11:17;7.15;;;2.70;;
66972;SDS011;53902;51.466;-2.586;2022-11-04T06:13:46;5.45;;;2.67;;
66972;SDS011;53902;51.466;-2.586;2022-11-04T06:16:15;4.72;;;2.35;;
66972;SDS011;53902;51.466;-2.586;2022-11-04T06:18:41;7.63;;;2.55;;
66972;SDS011;53902;51.466;-2.586;2022-11-04T06:23:51;3.80;;;2.25;;
66972;SDS011;53902;51.466;-2.586;2022-11-04T06:26:18;3.63;;;2.40;;
66972;SDS011;53902;51.466;-2.586;2022-11-04T06:28:45;4.70;;;2.83;;
66972;SDS011;53902;51.466;-2.586;2022-11-04T06:31:13;3.05;;;2.13;;
66972;SDS011;53902;51.466;-2.586;2022-11-04T06:33:41;4.03;;;2.40;;
66972;SDS011;53902;51.466;-2.586;2022-11-04T06:36:10;8.70;;;3.05;;
66972;SDS011;53902;51.466;-2.586;2022-11-04T06:38:37;5.15;;;2.55;;
66972;SDS011;53902;51.466;-2.586;2022-11-04T06:41:04;4.38;;;2.53;;
66972;SDS011;53902;51.466;-2.586;2022-11-04T06:43:32;4.43;;;2.33;;
66972;SDS011;53902;51.466;-2.586;2022-11-04T06:46:00;5.53;;;2.17;;
66972;SDS011;53902;51.466;-2.586;2022-11-04T06:48:34;5.68;;;2.20;;
66972;SDS011;53902;51.466;-2.586;2022-11-04T06:51:00;9.55;;;2.45;;
66972;SDS011;53902;51.466;-2.586;2022-11-04T06:53:26;2.80;;;1.88;;
66972;SDS011;53902;51.466;-2.586;2022-11-04T06:55:53;5.13;;;1.80;;
66972;SDS011;53902;51.466;-2.586;2022-11-04T06:58:18;5.97;;;2.40;;
66972;SDS011;53902;51.466;-2.586;2022-11-04T07:00:49;6.75;;;2.35;;
66972;SDS011;53902;51.466;-2.586;2022-11-04T07:03:15;5.32;;;2.10;;
66972;SDS011;53902;51.466;-2.586;2022-11-04T07:05:41;8.02;;;2.10;;
66972;SDS011;53902;51.466;-2.586;2022-11-04T07:08:06;6.55;;;2.70;;
66972;SDS011;53902;51.466;-2.586;2022-11-04T07:10:32;5.25;;;1.85;;
66972;SDS011;53902;51.466;-2.586;2022-11-04T07:12:57;6.57;;;1.73;;
66972;SDS011;53902;51.466;-2.586;2022-11-04T07:15:23;4.60;;;1.75;;
66972;SDS011;53902;51.466;-2.586;2022-11-04T07:17:48;5.38;;;1.70;;
66972;SDS011;53902;51.466;-2.586;2022-11-04T07:20:14;3.40;;;1.55;;
66972;SDS011;53902;51.466;-2.586;2022-11-04T07:22:39;6.43;;;1.92;;
66972;SDS011;53902;51.466;-2.586;2022-11-04T07:25:05;3.58;;;1.55;;
66972;SDS011;53902;51.466;-2.586;2022-11-04T07:27:30;3.35;;;1.67;;
66972;SDS011;53902;51.466;-2.586;2022-11-04T07:29:56;5.85;;;1.98;;
66972;SDS011;53902;51.466;-2.586;2022-11-04T07:32:21;5.70;;;2.03;;
66972;SDS011;53902;51.466;-2.586;2022-11-04T07:34:47;3.25;;;1.73;;
66972;SDS011;53902;51.466;-2.586;2022-11-04T07:37:12;2.70;;;1.70;;
66972;SDS011;53902;51.466;-2.586;2022-11-04T07:39:37;5.55;;;2.00;;
66972;SDS011;53902;51.466;-2.586;2022-11-04T07:42:03;2.90;;;1.77;;
66972;SDS011;53902;51.466;-2.586;2022-11-04T07:44:28;4.07;;;1.90;;
66972;SDS011;53902;51.466;-2.586;2022-11-04T07:46:53;8.43;;;2.10;;
66972;SDS011;53902;51.466;-2.586;2022-11-04T07:49:19;6.75;;;1.85;;
66972;SDS011;53902;51.466;-2.586;2022-11-04T07:51:44;3.58;;;2.03;;
66972;SDS011;53902;51.466;-2.586;2022-11-04T07:54:10;5.10;;;2.10;;
66972;SDS011;53902;51.466;-2.586;2022-11-04T07:56:35;6.85;;;2.33;;
66972;SDS011;53902;51.466;-2.586;2022-11-04T07:59:00;3.25;;;2.40;;
66972;SDS011;53902;51.466;-2.586;2022-11-04T08:01:26;4.00;;;2.00;;
66972;SDS011;53902;51.466;-2.586;2022-11-04T08:03:52;8.05;;;2.35;;
66972;SDS011;53902;51.466;-2.586;2022-11-04T08:06:18;2.30;;;1.65;;
66972;SDS011;53902;51.466;-2.586;2022-11-04T08:08:44;5.40;;;1.73;;
66972;SDS011;53902;51.466;-2.586;2022-11-04T08:11:13;2.75;;;1.52;;
66972;SDS011;53902;51.466;-2.586;2022-11-04T08:13:43;5.05;;;1.70;;
66972;SDS011;53902;51.466;-2.586;2022-11-04T08:16:10;4.43;;;1.90;;
66972;SDS011;53902;51.466;-2.586;2022-11-04T08:18:37;4.20;;;1.40;;
66972;SDS011;53902;51.466;-2.586;2022-11-04T08:21:04;1.40;;;1.30;;
66972;SDS011;53902;51.466;-2.586;2022-11-04T08:23:30;3.22;;;1.55;;
66972;SDS011;53902;51.466;-2.586;2022-11-04T08:25:56;2.37;;;1.10;;
66972;SDS011;53902;51.466;-2.586;2022-11-04T08:28:22;1.35;;;1.20;;
66972;SDS011;53902;51.466;-2.586;2022-11-04T08:30:55;1.23;;;1.13;;
66972;SDS011;53902;51.466;-2.586;2022-11-04T08:33:23;3.22;;;0.85;;
66972;SDS011;53902;51.466;-2.586;2022-11-04T08:35:49;1.45;;;1.27;;
66972;SDS011;53902;51.466;-2.586;2022-11-04T08:38:14;2.58;;;1.17;;
66972;SDS011;53902;51.466;-2.586;2022-11-04T08:40:40;3.33;;;1.25;;
66972;SDS011;53902;51.466;-2.586;2022-11-04T08:43:06;0.95;;;0.90;;
66972;SDS011;53902;51.466;-2.586;2022-11-04T08:45:32;4.03;;;2.25;;
66972;SDS011;53902;51.466;-2.586;2022-11-04T08:47:58;2.50;;;1.10;;
66972;SDS011;53902;51.466;-2.586;2022-11-04T08:50:23;5.47;;;1.63;;
66972;SDS011;53902;51.466;-2.586;2022-11-04T08:52:52;1.30;;;1.20;;
66972;SDS011;53902;51.466;-2.586;2022-11-04T08:55:18;3.88;;;1.20;;
66972;SDS011;53902;51.466;-2.586;2022-11-04T08:57:43;1.35;;;1.05;;
66972;SDS011;53902;51.466;-2.586;2022-11-04T09:00:09;1.20;;;1.10;;
66972;SDS011;53902;51.466;-2.586;2022-11-04T09:02:35;8.43;;;1.92;;
66972;SDS011;53902;51.466;-2.586;2022-11-04T09:05:00;2.08;;;1.40;;
66972;SDS011;53902;51.466;-2.586;2022-11-04T09:07:26;1.92;;;1.05;;
66972;SDS011;53902;51.466;-2.586;2022-11-04T09:09:51;6.88;;;1.30;;
66972;SDS011;53902;51.466;-2.586;2022-11-04T09:12:16;11.85;;;1.40;;
66972;SDS011;53902;51.466;-2.586;2022-11-04T09:17:17;9.50;;;1.88;;
66972;SDS011;53902;51.466;-2.586;2022-11-04T09:19:46;6.35;;;1.13;;
66972;SDS011;53902;51.466;-2.586;2022-11-04T09:22:12;4.97;;;1.65;;
66972;SDS011;53902;51.466;-2.586;2022-11-04T09:24:37;5.03;;;1.25;;
66972;SDS011;53902;51.466;-2.586;2022-11-04T09:27:04;5.32;;;1.30;;
66972;SDS011;53902;51.466;-2.586;2022-11-04T09:29:30;7.53;;;1.20;;
66972;SDS011;53902;51.466;-2.586;2022-11-04T09:31:58;2.40;;;1.08;;
66972;SDS011;53902;51.466;-2.586;2022-11-04T09:34:24;1.33;;;1.20;;
66972;SDS011;53902;51.466;-2.586;2022-11-04T09:36:53;6.85;;;1.38;;
66972;SDS011;53902;51.466;-2.586;2022-11-04T09:39:42;3.13;;;1.02;;
66972;SDS011;53902;51.466;-2.586;2022-11-04T09:44:49;1.67;;;1.20;;
66972;SDS011;53902;51.466;-2.586;2022-11-04T09:47:22;1.73;;;1.10;;
66972;SDS011;53902;51.466;-2.586;2022-11-04T09:49:49;3.00;;;1.20;;
66972;SDS011;53902;51.466;-2.586;2022-11-04T09:52:17;1.67;;;1.00;;
66972;SDS011;53902;51.466;-2.586;2022-11-04T09:57:55;3.08;;;0.98;;
66972;SDS011;53902;51.466;-2.586;2022-11-04T10:00:23;9.27;;;1.30;;
66972;SDS011;53902;51.466;-2.586;2022-11-04T10:08:30;5.88;;;0.95;;
66972;SDS011;53902;51.466;-2.586;2022-11-04T10:11:03;1.92;;;0.85;;
66972;SDS011;53902;51.466;-2.586;2022-11-04T10:22:28;7.38;;;0.80;;
66972;SDS011;53902;51.466;-2.586;2022-11-04T10:25:06;5.88;;;1.10;;
66972;SDS011;53902;51.466;-2.586;2022-11-04T10:27:41;3.55;;;1.10;;
66972;SDS011;53902;51.466;-2.586;2022-11-04T10:33:02;1.27;;;0.70;;
66972;SDS011;53902;51.466;-2.586;2022-11-04T10:36:08;3.90;;;0.70;;
66972;SDS011;53902;51.466;-2.586;2022-11-04T10:41:25;1.75;;;0.70;;
66972;SDS011;53902;51.466;-2.586;2022-11-04T10:44:13;3.75;;;1.00;;
66972;SDS011;53902;51.466;-2.586;2022-11-04T10:49:44;2.78;;;0.70;;
66972;SDS011;53902;51.466;-2.586;2022-11-04T10:52:18;3.47;;;0.80;;
66972;SDS011;53902;51.466;-2.586;2022-11-04T10:54:48;1.50;;;0.70;;
66972;SDS011;53902;51.466;-2.586;2022-11-04T10:57:18;2.63;;;0.88;;
66972;SDS011;53902;51.466;-2.586;2022-11-04T11:07:43;3.70;;;0.90;;
66972;SDS011;53902;51.466;-2.586;2022-11-04T11:10:22;3.45;;;1.10;;
66972;SDS011;53902;51.466;-2.586;2022-11-04T11:15:33;5.03;;;0.77;;
66972;SDS011;53902;51.466;-2.586;2022-11-04T11:20:33;1.05;;;0.70;;
66972;SDS011;53902;51.466;-2.586;2022-11-04T11:23:02;2.47;;;0.60;;
66972;SDS011;53902;51.466;-2.586;2022-11-04T11:25:33;0.80;;;0.80;;
66972;SDS011;53902;51.466;-2.586;2022-11-04T11:28:09;3.75;;;0.90;;
66972;SDS011;53902;51.466;-2.586;2022-11-04T11:33:27;2.70;;;0.85;;
66972;SDS011;53902;51.466;-2.586;2022-11-04T11:35:54;0.80;;;0.70;;
66972;SDS011;53902;51.466;-2.586;2022-11-04T11:38:22;4.70;;;0.93;;
66972;SDS011;53902;51.466;-2.586;2022-11-04T11:40:50;3.80;;;0.88;;
66972;SDS011;53902;51.466;-2.586;2022-11-04T11:43:26;1.52;;;0.75;;
66972;SDS011;53902;51.466;-2.586;2022-11-04T11:45:53;3.80;;;1.00;;
66972;SDS011;53902;51.466;-2.586;2022-11-04T11:50:56;3.75;;;1.15;;
66972;SDS011;53902;51.466;-2.586;2022-11-04T11:53:25;3.03;;;0.85;;
66972;SDS011;53902;51.466;-2.586;2022-11-04T11:58:41;1.55;;;0.80;;
66972;SDS011;53902;51.466;-2.586;2022-11-04T12:01:18;2.47;;;0.93;;
66972;SDS011;53902;51.466;-2.586;2022-11-04T12:03:48;5.30;;;0.98;;
66972;SDS011;53902;51.466;-2.586;2022-11-04T12:08:57;2.65;;;0.70;;
66972;SDS011;53902;51.466;-2.586;2022-11-04T12:14:04;2.60;;;0.80;;
66972;SDS011;53902;51.466;-2.586;2022-11-04T12:22:16;5.28;;;0.90;;
66972;SDS011;53902;51.466;-2.586;2022-11-04T12:24:51;2.97;;;0.70;;
66972;SDS011;53902;51.466;-2.586;2022-11-04T12:30:30;4.40;;;0.80;;
66972;SDS011;53902;51.466;-2.586;2022-11-04T12:46:08;4.60;;;0.90;;
66972;SDS011;53902;51.466;-2.586;2022-11-04T12:57:21;1.00;;;0.60;;
66972;SDS011;53902;51.466;-2.586;2022-11-04T13:00:02;1.60;;;0.80;;
66972;SDS011;53902;51.466;-2.586;2022-11-04T13:02:39;2.58;;;0.70;;
66972;SDS011;53902;51.466;-2.586;2022-11-04T13:07:46;3.38;;;0.90;;
66972;SDS011;53902;51.466;-2.586;2022-11-04T13:10:21;3.50;;;0.95;;
66972;SDS011;53902;51.466;-2.586;2022-11-04T13:12:51;1.10;;;0.55;;
66972;SDS011;53902;51.466;-2.586;2022-11-04T13:15:22;3.55;;;0.70;;
66972;SDS011;53902;51.466;-2.586;2022-11-04T13:17:51;4.43;;;0.60;;
66972;SDS011;53902;51.466;-2.586;2022-11-04T13:22:58;1.38;;;0.60;;
66972;SDS011;53902;51.466;-2.586;2022-11-04T13:27:56;2.40;;;0.73;;
66972;SDS011;53902;51.466;-2.586;2022-11-04T13:35:47;1.00;;;0.50;;
66972;SDS011;53902;51.466;-2.586;2022-11-04T13:38:37;0.88;;;0.50;;
66972;SDS011;53902;51.466;-2.586;2022-11-04T13:43:42;0.68;;;0.50;;
66972;SDS011;53902;51.466;-2.586;2022-11-04T13:46:29;2.38;;;0.60;;
66972;SDS011;53902;51.466;-2.586;2022-11-04T13:51:22;1.13;;;0.60;;
66972;SDS011;53902;51.466;-2.586;2022-11-04T13:54:01;4.13;;;0.82;;
66972;SDS011;53902;51.466;-2.586;2022-11-04T13:56:27;1.02;;;0.40;;
66972;SDS011;53902;51.466;-2.586;2022-11-04T13:58:54;2.20;;;0.63;;
66972;SDS011;53902;51.466;-2.586;2022-11-04T14:04:01;0.73;;;0.52;;
66972;SDS011;53902;51.466;-2.586;2022-11-04T14:06:49;2.63;;;0.50;;
66972;SDS011;53902;51.466;-2.586;2022-11-04T14:20:27;0.65;;;0.40;;
66972;SDS011;53902;51.466;-2.586;2022-11-04T14:22:56;1.50;;;0.52;;
66972;SDS011;53902;51.466;-2.586;2022-11-04T14:25:24;0.60;;;0.50;;
66972;SDS011;53902;51.466;-2.586;2022-11-04T14:27:51;0.98;;;0.50;;
66972;SDS011;53902;51.466;-2.586;2022-11-04T14:32:58;1.42;;;0.70;;
66972;SDS011;53902;51.466;-2.586;2022-11-04T14:35:30;1.42;;;0.40;;
66972;SDS011;53902;51.466;-2.586;2022-11-04T14:37:57;3.05;;;0.50;;
66972;SDS011;53902;51.466;-2.586;2022-11-04T14:40:44;1.70;;;0.60;;
66972;SDS011;53902;51.466;-2.586;2022-11-04T14:43:33;0.52;;;0.40;;
66972;SDS011;53902;51.466;-2.586;2022-11-04T14:45:59;1.08;;;0.50;;
66972;SDS011;53902;51.466;-2.586;2022-11-04T14:48:25;2.42;;;0.55;;
66972;SDS011;53902;51.466;-2.586;2022-11-04T14:50:52;0.68;;;0.57;;
66972;SDS011;53902;51.466;-2.586;2022-11-04T14:53:37;1.23;;;0.40;;
66972;SDS011;53902;51.466;-2.586;2022-11-04T14:56:04;0.47;;;0.38;;
66972;SDS011;53902;51.466;-2.586;2022-11-04T14:59:15;1.75;;;0.52;;
66972;SDS011;53902;51.466;-2.586;2022-11-04T15:01:41;1.23;;;0.50;;
66972;SDS011;53902;51.466;-2.586;2022-11-04T15:04:23;0.55;;;0.50;;
66972;SDS011;53902;51.466;-2.586;2022-11-04T15:06:54;1.23;;;0.40;;
66972;SDS011;53902;51.466;-2.586;2022-11-04T15:09:24;2.22;;;0.45;;
66972;SDS011;53902;51.466;-2.586;2022-11-04T15:12:05;2.88;;;0.60;;
66972;SDS011;53902;51.466;-2.586;2022-11-04T15:14:53;3.65;;;0.70;;
66972;SDS011;53902;51.466;-2.586;2022-11-04T15:17:19;0.73;;;0.50;;
66972;SDS011;53902;51.466;-2.586;2022-11-04T15:19:50;2.45;;;0.52;;
66972;SDS011;53902;51.466;-2.586;2022-11-04T15:22:17;1.30;;;0.73;;
66972;SDS011;53902;51.466;-2.586;2022-11-04T15:24:43;3.92;;;0.68;;
66972;SDS011;53902;51.466;-2.586;2022-11-04T15:27:09;1.83;;;0.60;;
66972;SDS011;53902;51.466;-2.586;2022-11-04T15:29:37;1.23;;;0.50;;
66972;SDS011;53902;51.466;-2.586;2022-11-04T15:32:03;0.95;;;0.50;;
66972;SDS011;53902;51.466;-2.586;2022-11-04T15:34:29;3.03;;;0.60;;
66972;SDS011;53902;51.466;-2.586;2022-11-04T15:36:55;0.73;;;0.38;;
66972;SDS011;53902;51.466;-2.586;2022-11-04T15:41:49;1.65;;;0.40;;
66972;SDS011;53902;51.466;-2.586;2022-11-04T15:44:35;0.55;;;0.50;;
66972;SDS011;53902;51.466;-2.586;2022-11-04T15:47:03;2.47;;;0.40;;
66972;SDS011;53902;51.466;-2.586;2022-11-04T15:49:46;1.55;;;0.40;;
66972;SDS011;53902;51.466;-2.586;2022-11-04T15:52:18;0.47;;;0.40;;
66972;SDS011;53902;51.466;-2.586;2022-11-04T15:54:52;0.60;;;0.40;;
66972;SDS011;53902;51.466;-2.586;2022-11-04T15:57:53;0.45;;;0.35;;
66972;SDS011;53902;51.466;-2.586;2022-11-04T16:02:46;0.30;;;0.30;;
66972;SDS011;53902;51.466;-2.586;2022-11-04T16:12:57;0.38;;;0.38;;
66972;SDS011;53902;51.466;-2.586;2022-11-04T16:17:56;1.20;;;0.40;;
66972;SDS011;53902;51.466;-2.586;2022-11-04T16:48:48;1.25;;;0.93;;
66972;SDS011;53902;51.466;-2.586;2022-11-04T16:51:14;3.70;;;1.38;;
66972;SDS011;53902;51.466;-2.586;2022-11-04T16:53:42;1.98;;;0.90;;
66972;SDS011;53902;51.466;-2.586;2022-11-04T16:56:08;2.22;;;0.80;;
66972;SDS011;53902;51.466;-2.586;2022-11-04T16:58:33;3.95;;;1.00;;
66972;SDS011;53902;51.466;-2.586;2022-11-04T17:00:59;1.70;;;0.63;;
66972;SDS011;53902;51.466;-2.586;2022-11-04T17:05:56;1.73;;;0.80;;
66972;SDS011;53902;51.466;-2.586;2022-11-04T17:08:22;1.13;;;0.60;;
66972;SDS011;53902;51.466;-2.586;2022-11-04T17:10:48;3.72;;;0.95;;
66972;SDS011;53902;51.466;-2.586;2022-11-04T17:13:13;2.65;;;1.13;;
66972;SDS011;53902;51.466;-2.586;2022-11-04T17:25:59;0.85;;;0.70;;
66972;SDS011;53902;51.466;-2.586;2022-11-04T17:31:00;1.35;;;0.80;;
66972;SDS011;53902;51.466;-2.586;2022-11-04T17:33:26;1.42;;;0.85;;
66972;SDS011;53902;51.466;-2.586;2022-11-04T17:35:52;1.20;;;0.68;;
66972;SDS011;53902;51.466;-2.586;2022-11-04T17:38:17;1.27;;;1.13;;
66972;SDS011;53902;51.466;-2.586;2022-11-04T17:40:43;3.78;;;1.00;;
66972;SDS011;53902;51.466;-2.586;2022-11-04T17:43:27;1.20;;;1.02;;
66972;SDS011;53902;51.466;-2.586;2022-11-04T17:46:11;2.58;;;0.85;;
66972;SDS011;53902;51.466;-2.586;2022-11-04T17:48:56;1.75;;;0.93;;
66972;SDS011;53902;51.466;-2.586;2022-11-04T17:51:35;1.98;;;1.00;;
66972;SDS011;53902;51.466;-2.586;2022-11-04T17:54:01;4.10;;;1.25;;
66972;SDS011;53902;51.466;-2.586;2022-11-04T17:56:26;2.85;;;1.58;;
66972;SDS011;53902;51.466;-2.586;2022-11-04T17:58:52;2.72;;;1.40;;
66972;SDS011;53902;51.466;-2.586;2022-11-04T18:01:18;4.00;;;1.63;;
66972;SDS011;53902;51.466;-2.586;2022-11-04T18:03:46;4.53;;;1.27;;
66972;SDS011;53902;51.466;-2.586;2022-11-04T18:06:11;4.55;;;1.98;;
66972;SDS011;53902;51.466;-2.586;2022-11-04T18:08:37;3.78;;;2.17;;
66972;SDS011;53902;51.466;-2.586;2022-11-04T18:11:05;6.03;;;2.53;;
66972;SDS011;53902;51.466;-2.586;2022-11-04T18:13:34;4.60;;;2.53;;
66972;SDS011;53902;51.466;-2.586;2022-11-04T18:16:10;5.22;;;2.47;;
66972;SDS011;53902;51.466;-2.586;2022-11-04T18:18:37;6.15;;;1.90;;
66972;SDS011;53902;51.466;-2.586;2022-11-04T18:21:03;4.68;;;2.40;;
66972;SDS011;53902;51.466;-2.586;2022-11-04T18:23:30;4.38;;;1.98;;
66972;SDS011;53902;51.466;-2.586;2022-11-04T18:25:55;6.75;;;2.85;;
66972;SDS011;53902;51.466;-2.586;2022-11-04T18:28:21;6.60;;;2.40;;
66972;SDS011;53902;51.466;-2.586;2022-11-04T18:30:46;4.90;;;2.42;;
66972;SDS011;53902;51.466;-2.586;2022-11-04T18:33:12;5.28;;;2.33;;
66972;SDS011;53902;51.466;-2.586;2022-11-04T18:35:37;9.15;;;2.60;;
66972;SDS011;53902;51.466;-2.586;2022-11-04T18:38:03;4.60;;;2.10;;
66972;SDS011;53902;51.466;-2.586;2022-11-04T18:40:31;4.95;;;2.03;;